sensor_id;sensor_type;location;lat;lon;timestamp;P1;durP1;ratioP1;P2;durP2;ratioP2
21266;SDS011;10791;53.108;18.326;2023-09-30T00:01:46;16.92;;;11.80;;
21266;SDS011;10791;53.108;18.326;2023-09-30T00:06:50;21.08;;;11.52;;
21266;SDS011;10791;53.108;18.326;2023-09-30T00:11:53;24.08;;;12.90;;
21266;SDS011;10791;53.108;18.326;2023-09-30T00:16:57;19.02;;;13.30;;
21266;SDS011;10791;53.108;18.326;2023-09-30T00:22:02;22.10;;;13.05;;
21266;SDS011;10791;53.108;18.326;2023-09-30T00:27:06;20.95;;;13.73;;
21266;SDS011;10791;53.108;18.326;2023-09-30T00:32:10;21.45;;;12.90;;
21266;SDS011;10791;53.108;18.326;2023-09-30T00:37:13;25.90;;;13.25;;
21266;SDS011;10791;53.108;18.326;2023-09-30T00:42:17;20.25;;;11.73;;
21266;SDS011;10791;53.108;18.326;2023-09-30T00:47:21;21.23;;;12.52;;
21266;SDS011;10791;53.108;18.326;2023-09-30T00:52:25;22.50;;;12.90;;
21266;SDS011;10791;53.108;18.326;2023-09-30T00:57:30;23.98;;;12.93;;
21266;SDS011;10791;53.108;18.326;2023-09-30T01:02:33;18.27;;;11.20;;
21266;SDS011;10791;53.108;18.326;2023-09-30T01:07:37;17.95;;;11.35;;
21266;SDS011;10791;53.108;18.326;2023-09-30T01:12:41;19.55;;;12.07;;
21266;SDS011;10791;53.108;18.326;2023-09-30T01:17:45;19.30;;;11.52;;
21266;SDS011;10791;53.108;18.326;2023-09-30T01:22:48;19.23;;;11.48;;
21266;SDS011;10791;53.108;18.326;2023-09-30T01:27:52;18.83;;;11.82;;
21266;SDS011;10791;53.108;18.326;2023-09-30T01:32:55;17.88;;;10.57;;
21266;SDS011;10791;53.108;18.326;2023-09-30T01:37:59;21.50;;;12.40;;
21266;SDS011;10791;53.108;18.326;2023-09-30T01:43:03;17.35;;;11.95;;
21266;SDS011;10791;53.108;18.326;2023-09-30T01:48:07;19.00;;;11.50;;
21266;SDS011;10791;53.108;18.326;2023-09-30T01:53:13;23.75;;;12.43;;
21266;SDS011;10791;53.108;18.326;2023-09-30T01:58:17;23.52;;;14.15;;
21266;SDS011;10791;53.108;18.326;2023-09-30T02:03:20;19.83;;;12.70;;
21266;SDS011;10791;53.108;18.326;2023-09-30T02:08:24;20.48;;;12.82;;
21266;SDS011;10791;53.108;18.326;2023-09-30T02:13:28;22.17;;;12.80;;
21266;SDS011;10791;53.108;18.326;2023-09-30T02:18:32;22.27;;;14.45;;
21266;SDS011;10791;53.108;18.326;2023-09-30T02:23:36;23.50;;;12.98;;
21266;SDS011;10791;53.108;18.326;2023-09-30T02:28:39;18.70;;;12.27;;
21266;SDS011;10791;53.108;18.326;2023-09-30T02:33:43;23.20;;;12.63;;
21266;SDS011;10791;53.108;18.326;2023-09-30T02:38:46;19.65;;;12.40;;
21266;SDS011;10791;53.108;18.326;2023-09-30T02:43:49;18.98;;;12.10;;
21266;SDS011;10791;53.108;18.326;2023-09-30T02:48:53;26.30;;;12.23;;
21266;SDS011;10791;53.108;18.326;2023-09-30T02:53:57;18.25;;;11.38;;
21266;SDS011;10791;53.108;18.326;2023-09-30T02:59:00;15.18;;;11.18;;
21266;SDS011;10791;53.108;18.326;2023-09-30T03:04:04;17.25;;;10.85;;
21266;SDS011;10791;53.108;18.326;2023-09-30T03:09:09;15.35;;;10.20;;
21266;SDS011;10791;53.108;18.326;2023-09-30T03:14:16;21.83;;;11.20;;
21266;SDS011;10791;53.108;18.326;2023-09-30T03:19:19;17.45;;;10.10;;
21266;SDS011;10791;53.108;18.326;2023-09-30T03:24:22;14.05;;;9.60;;
21266;SDS011;10791;53.108;18.326;2023-09-30T03:29:27;14.45;;;9.80;;
21266;SDS011;10791;53.108;18.326;2023-09-30T03:34:30;14.48;;;9.32;;
21266;SDS011;10791;53.108;18.326;2023-09-30T03:39:33;13.27;;;9.02;;
21266;SDS011;10791;53.108;18.326;2023-09-30T03:44:37;14.27;;;9.52;;
21266;SDS011;10791;53.108;18.326;2023-09-30T03:49:41;15.45;;;9.38;;
21266;SDS011;10791;53.108;18.326;2023-09-30T03:54:45;14.95;;;8.73;;
21266;SDS011;10791;53.108;18.326;2023-09-30T03:59:50;13.55;;;8.02;;
21266;SDS011;10791;53.108;18.326;2023-09-30T04:04:55;12.85;;;7.90;;
21266;SDS011;10791;53.108;18.326;2023-09-30T04:09:59;13.00;;;8.52;;
21266;SDS011;10791;53.108;18.326;2023-09-30T04:15:07;14.40;;;8.77;;
21266;SDS011;10791;53.108;18.326;2023-09-30T04:20:15;11.57;;;8.35;;
21266;SDS011;10791;53.108;18.326;2023-09-30T04:25:26;9.40;;;7.03;;
21266;SDS011;10791;53.108;18.326;2023-09-30T04:30:29;10.63;;;7.68;;
21266;SDS011;10791;53.108;18.326;2023-09-30T04:35:35;12.70;;;6.32;;
21266;SDS011;10791;53.108;18.326;2023-09-30T04:40:38;9.63;;;5.22;;
21266;SDS011;10791;53.108;18.326;2023-09-30T04:45:42;9.85;;;5.40;;
21266;SDS011;10791;53.108;18.326;2023-09-30T04:50:45;7.05;;;4.07;;
21266;SDS011;10791;53.108;18.326;2023-09-30T04:55:49;3.97;;;2.13;;
21266;SDS011;10791;53.108;18.326;2023-09-30T05:00:52;5.45;;;1.92;;
21266;SDS011;10791;53.108;18.326;2023-09-30T05:05:56;3.08;;;1.40;;
21266;SDS011;10791;53.108;18.326;2023-09-30T05:11:00;3.92;;;1.23;;
21266;SDS011;10791;53.108;18.326;2023-09-30T05:16:04;2.45;;;1.08;;
21266;SDS011;10791;53.108;18.326;2023-09-30T05:21:07;3.22;;;0.75;;
21266;SDS011;10791;53.108;18.326;2023-09-30T05:26:10;2.08;;;0.70;;
21266;SDS011;10791;53.108;18.326;2023-09-30T05:31:14;6.00;;;0.90;;
21266;SDS011;10791;53.108;18.326;2023-09-30T05:36:17;3.15;;;0.70;;
21266;SDS011;10791;53.108;18.326;2023-09-30T05:41:20;5.30;;;1.25;;
21266;SDS011;10791;53.108;18.326;2023-09-30T05:46:23;3.35;;;0.88;;
21266;SDS011;10791;53.108;18.326;2023-09-30T05:51:27;2.80;;;1.05;;
21266;SDS011;10791;53.108;18.326;2023-09-30T05:56:30;3.42;;;1.00;;
21266;SDS011;10791;53.108;18.326;2023-09-30T06:01:35;3.20;;;1.00;;
21266;SDS011;10791;53.108;18.326;2023-09-30T06:06:39;5.10;;;1.27;;
21266;SDS011;10791;53.108;18.326;2023-09-30T06:11:43;2.00;;;1.30;;
21266;SDS011;10791;53.108;18.326;2023-09-30T06:16:46;3.40;;;1.33;;
21266;SDS011;10791;53.108;18.326;2023-09-30T06:21:50;9.98;;;1.25;;
21266;SDS011;10791;53.108;18.326;2023-09-30T06:26:54;6.07;;;1.27;;
21266;SDS011;10791;53.108;18.326;2023-09-30T06:31:57;11.35;;;1.80;;
21266;SDS011;10791;53.108;18.326;2023-09-30T06:37:01;4.85;;;1.88;;
21266;SDS011;10791;53.108;18.326;2023-09-30T06:42:05;6.20;;;1.48;;
21266;SDS011;10791;53.108;18.326;2023-09-30T06:47:09;6.80;;;1.35;;
21266;SDS011;10791;53.108;18.326;2023-09-30T06:52:14;3.33;;;1.02;;
21266;SDS011;10791;53.108;18.326;2023-09-30T06:57:18;6.95;;;1.35;;
21266;SDS011;10791;53.108;18.326;2023-09-30T07:02:22;4.35;;;1.77;;
21266;SDS011;10791;53.108;18.326;2023-09-30T07:07:28;3.45;;;1.15;;
21266;SDS011;10791;53.108;18.326;2023-09-30T07:12:31;6.03;;;1.45;;
21266;SDS011;10791;53.108;18.326;2023-09-30T07:17:38;7.13;;;2.05;;
21266;SDS011;10791;53.108;18.326;2023-09-30T07:22:46;6.65;;;1.95;;
21266;SDS011;10791;53.108;18.326;2023-09-30T07:28:08;9.73;;;2.10;;
21266;SDS011;10791;53.108;18.326;2023-09-30T07:33:14;6.30;;;2.15;;
21266;SDS011;10791;53.108;18.326;2023-09-30T07:38:17;7.60;;;1.77;;
21266;SDS011;10791;53.108;18.326;2023-09-30T07:43:20;6.93;;;1.65;;
21266;SDS011;10791;53.108;18.326;2023-09-30T07:48:24;6.72;;;1.65;;
21266;SDS011;10791;53.108;18.326;2023-09-30T07:53:29;8.15;;;1.58;;
21266;SDS011;10791;53.108;18.326;2023-09-30T07:58:32;9.70;;;1.33;;
21266;SDS011;10791;53.108;18.326;2023-09-30T08:03:35;7.28;;;1.58;;
21266;SDS011;10791;53.108;18.326;2023-09-30T08:08:39;4.35;;;1.30;;
21266;SDS011;10791;53.108;18.326;2023-09-30T08:13:43;5.93;;;1.35;;
21266;SDS011;10791;53.108;18.326;2023-09-30T08:18:46;8.70;;;1.70;;
21266;SDS011;10791;53.108;18.326;2023-09-30T08:23:50;9.45;;;1.95;;
21266;SDS011;10791;53.108;18.326;2023-09-30T08:28:53;6.88;;;1.63;;
21266;SDS011;10791;53.108;18.326;2023-09-30T08:33:57;10.15;;;2.22;;
21266;SDS011;10791;53.108;18.326;2023-09-30T08:39:01;5.55;;;1.40;;
21266;SDS011;10791;53.108;18.326;2023-09-30T08:44:04;9.63;;;2.45;;
21266;SDS011;10791;53.108;18.326;2023-09-30T08:49:08;6.25;;;1.90;;
21266;SDS011;10791;53.108;18.326;2023-09-30T08:54:14;6.53;;;1.65;;
21266;SDS011;10791;53.108;18.326;2023-09-30T08:59:17;4.78;;;1.95;;
21266;SDS011;10791;53.108;18.326;2023-09-30T09:04:21;3.53;;;1.42;;
21266;SDS011;10791;53.108;18.326;2023-09-30T09:09:25;7.55;;;1.98;;
21266;SDS011;10791;53.108;18.326;2023-09-30T09:19:42;5.82;;;1.90;;
21266;SDS011;10791;53.108;18.326;2023-09-30T09:24:45;9.25;;;1.70;;
21266;SDS011;10791;53.108;18.326;2023-09-30T09:29:50;7.80;;;1.95;;
21266;SDS011;10791;53.108;18.326;2023-09-30T09:34:59;4.10;;;1.45;;
21266;SDS011;10791;53.108;18.326;2023-09-30T09:40:04;6.20;;;1.50;;
21266;SDS011;10791;53.108;18.326;2023-09-30T09:45:10;6.40;;;1.25;;
21266;SDS011;10791;53.108;18.326;2023-09-30T09:50:14;7.55;;;1.65;;
21266;SDS011;10791;53.108;18.326;2023-09-30T09:55:19;6.40;;;2.10;;
21266;SDS011;10791;53.108;18.326;2023-09-30T10:00:25;5.53;;;1.70;;
21266;SDS011;10791;53.108;18.326;2023-09-30T10:05:30;6.82;;;1.70;;
21266;SDS011;10791;53.108;18.326;2023-09-30T10:10:37;9.00;;;2.45;;
21266;SDS011;10791;53.108;18.326;2023-09-30T10:15:41;5.43;;;2.15;;
21266;SDS011;10791;53.108;18.326;2023-09-30T10:20:46;8.55;;;1.45;;
21266;SDS011;10791;53.108;18.326;2023-09-30T10:25:52;11.38;;;2.17;;
21266;SDS011;10791;53.108;18.326;2023-09-30T10:36:32;7.60;;;2.20;;
21266;SDS011;10791;53.108;18.326;2023-09-30T10:52:39;5.35;;;1.75;;
21266;SDS011;10791;53.108;18.326;2023-09-30T10:57:43;7.95;;;2.55;;
21266;SDS011;10791;53.108;18.326;2023-09-30T11:02:48;6.28;;;1.80;;
21266;SDS011;10791;53.108;18.326;2023-09-30T11:07:55;6.03;;;1.42;;
21266;SDS011;10791;53.108;18.326;2023-09-30T11:13:02;6.93;;;1.67;;
21266;SDS011;10791;53.108;18.326;2023-09-30T11:18:16;4.18;;;1.80;;
21266;SDS011;10791;53.108;18.326;2023-09-30T11:23:20;4.45;;;1.33;;
21266;SDS011;10791;53.108;18.326;2023-09-30T11:28:24;5.97;;;1.33;;
21266;SDS011;10791;53.108;18.326;2023-09-30T11:33:29;5.75;;;1.83;;
21266;SDS011;10791;53.108;18.326;2023-09-30T11:38:34;6.38;;;1.60;;
21266;SDS011;10791;53.108;18.326;2023-09-30T11:43:38;7.95;;;1.67;;
21266;SDS011;10791;53.108;18.326;2023-09-30T11:49:01;4.82;;;1.30;;
21266;SDS011;10791;53.108;18.326;2023-09-30T11:54:08;6.18;;;1.77;;
21266;SDS011;10791;53.108;18.326;2023-09-30T11:59:13;7.38;;;1.90;;
21266;SDS011;10791;53.108;18.326;2023-09-30T12:04:17;6.55;;;1.52;;
21266;SDS011;10791;53.108;18.326;2023-09-30T12:09:21;5.75;;;1.60;;
21266;SDS011;10791;53.108;18.326;2023-09-30T12:14:25;2.67;;;1.27;;
21266;SDS011;10791;53.108;18.326;2023-09-30T12:19:28;9.23;;;1.48;;
21266;SDS011;10791;53.108;18.326;2023-09-30T12:24:32;5.22;;;1.48;;
21266;SDS011;10791;53.108;18.326;2023-09-30T12:29:35;8.77;;;1.15;;
21266;SDS011;10791;53.108;18.326;2023-09-30T12:34:41;3.67;;;1.02;;
21266;SDS011;10791;53.108;18.326;2023-09-30T12:39:44;4.00;;;0.95;;
21266;SDS011;10791;53.108;18.326;2023-09-30T12:44:48;6.03;;;1.45;;
21266;SDS011;10791;53.108;18.326;2023-09-30T12:49:51;7.28;;;1.65;;
21266;SDS011;10791;53.108;18.326;2023-09-30T12:54:57;4.38;;;1.05;;
21266;SDS011;10791;53.108;18.326;2023-09-30T13:00:01;8.93;;;1.40;;
21266;SDS011;10791;53.108;18.326;2023-09-30T13:05:06;4.88;;;1.33;;
21266;SDS011;10791;53.108;18.326;2023-09-30T13:10:10;7.25;;;1.95;;
21266;SDS011;10791;53.108;18.326;2023-09-30T13:15:13;5.65;;;1.40;;
21266;SDS011;10791;53.108;18.326;2023-09-30T13:20:17;4.32;;;1.23;;
21266;SDS011;10791;53.108;18.326;2023-09-30T13:25:20;3.25;;;1.08;;
21266;SDS011;10791;53.108;18.326;2023-09-30T13:30:25;4.47;;;1.20;;
21266;SDS011;10791;53.108;18.326;2023-09-30T13:35:28;7.95;;;1.48;;
21266;SDS011;10791;53.108;18.326;2023-09-30T13:40:31;4.55;;;1.65;;
21266;SDS011;10791;53.108;18.326;2023-09-30T13:45:35;6.35;;;1.55;;
21266;SDS011;10791;53.108;18.326;2023-09-30T13:50:39;3.47;;;1.35;;
21266;SDS011;10791;53.108;18.326;2023-09-30T13:55:42;6.45;;;1.50;;
21266;SDS011;10791;53.108;18.326;2023-09-30T14:00:46;7.15;;;1.80;;
21266;SDS011;10791;53.108;18.326;2023-09-30T14:05:56;4.18;;;1.23;;
21266;SDS011;10791;53.108;18.326;2023-09-30T14:11:00;6.22;;;1.70;;
21266;SDS011;10791;53.108;18.326;2023-09-30T14:16:04;5.88;;;1.30;;
21266;SDS011;10791;53.108;18.326;2023-09-30T14:21:08;5.60;;;1.52;;
21266;SDS011;10791;53.108;18.326;2023-09-30T14:26:11;4.90;;;1.30;;
21266;SDS011;10791;53.108;18.326;2023-09-30T14:31:15;2.63;;;1.10;;
21266;SDS011;10791;53.108;18.326;2023-09-30T14:36:20;8.43;;;1.52;;
21266;SDS011;10791;53.108;18.326;2023-09-30T14:41:25;7.45;;;1.30;;
21266;SDS011;10791;53.108;18.326;2023-09-30T14:46:28;6.35;;;1.00;;
21266;SDS011;10791;53.108;18.326;2023-09-30T14:51:32;5.88;;;1.02;;
21266;SDS011;10791;53.108;18.326;2023-09-30T14:56:37;4.10;;;1.30;;
21266;SDS011;10791;53.108;18.326;2023-09-30T15:01:41;4.93;;;1.63;;
21266;SDS011;10791;53.108;18.326;2023-09-30T15:06:44;8.15;;;1.77;;
21266;SDS011;10791;53.108;18.326;2023-09-30T15:11:56;3.63;;;1.58;;
21266;SDS011;10791;53.108;18.326;2023-09-30T15:17:00;5.28;;;1.00;;
21266;SDS011;10791;53.108;18.326;2023-09-30T15:22:04;3.67;;;1.35;;
21266;SDS011;10791;53.108;18.326;2023-09-30T15:27:09;6.28;;;1.25;;
21266;SDS011;10791;53.108;18.326;2023-09-30T15:32:12;3.38;;;1.13;;
21266;SDS011;10791;53.108;18.326;2023-09-30T15:37:16;5.85;;;1.52;;
21266;SDS011;10791;53.108;18.326;2023-09-30T15:42:19;6.35;;;1.17;;
21266;SDS011;10791;53.108;18.326;2023-09-30T15:47:22;5.72;;;1.60;;
21266;SDS011;10791;53.108;18.326;2023-09-30T15:52:27;3.00;;;1.65;;
21266;SDS011;10791;53.108;18.326;2023-09-30T15:57:31;1.75;;;0.85;;
21266;SDS011;10791;53.108;18.326;2023-09-30T16:02:34;4.35;;;1.08;;
21266;SDS011;10791;53.108;18.326;2023-09-30T16:07:38;3.90;;;1.30;;
21266;SDS011;10791;53.108;18.326;2023-09-30T16:12:41;7.28;;;1.30;;
21266;SDS011;10791;53.108;18.326;2023-09-30T16:17:44;4.88;;;1.70;;
21266;SDS011;10791;53.108;18.326;2023-09-30T16:22:48;7.80;;;1.65;;
21266;SDS011;10791;53.108;18.326;2023-09-30T16:27:51;3.08;;;1.10;;
21266;SDS011;10791;53.108;18.326;2023-09-30T16:32:57;5.28;;;1.30;;
21266;SDS011;10791;53.108;18.326;2023-09-30T16:38:01;7.95;;;1.58;;
21266;SDS011;10791;53.108;18.326;2023-09-30T16:43:04;3.83;;;0.77;;
21266;SDS011;10791;53.108;18.326;2023-09-30T16:48:08;3.78;;;1.05;;
21266;SDS011;10791;53.108;18.326;2023-09-30T16:53:12;4.65;;;1.58;;
21266;SDS011;10791;53.108;18.326;2023-09-30T16:58:16;5.40;;;1.38;;
21266;SDS011;10791;53.108;18.326;2023-09-30T17:03:20;4.65;;;1.15;;
21266;SDS011;10791;53.108;18.326;2023-09-30T17:08:24;3.65;;;1.25;;
21266;SDS011;10791;53.108;18.326;2023-09-30T17:13:27;6.13;;;1.77;;
21266;SDS011;10791;53.108;18.326;2023-09-30T17:18:30;6.10;;;1.38;;
21266;SDS011;10791;53.108;18.326;2023-09-30T17:23:34;3.42;;;1.20;;
21266;SDS011;10791;53.108;18.326;2023-09-30T17:28:51;4.28;;;1.10;;
21266;SDS011;10791;53.108;18.326;2023-09-30T17:33:55;5.67;;;1.67;;
21266;SDS011;10791;53.108;18.326;2023-09-30T17:38:59;9.50;;;1.63;;
21266;SDS011;10791;53.108;18.326;2023-09-30T17:44:02;7.23;;;1.80;;
21266;SDS011;10791;53.108;18.326;2023-09-30T17:49:06;7.13;;;2.40;;
21266;SDS011;10791;53.108;18.326;2023-09-30T17:54:09;4.10;;;1.40;;
21266;SDS011;10791;53.108;18.326;2023-09-30T17:59:12;3.20;;;1.27;;
21266;SDS011;10791;53.108;18.326;2023-09-30T18:04:15;5.93;;;1.93;;
21266;SDS011;10791;53.108;18.326;2023-09-30T18:15:02;6.57;;;1.57;;
21266;SDS011;10791;53.108;18.326;2023-09-30T18:20:06;7.90;;;2.07;;
21266;SDS011;10791;53.108;18.326;2023-09-30T18:25:11;4.33;;;1.80;;
21266;SDS011;10791;53.108;18.326;2023-09-30T18:30:15;9.67;;;2.87;;
21266;SDS011;10791;53.108;18.326;2023-09-30T18:35:19;13.27;;;2.40;;
21266;SDS011;10791;53.108;18.326;2023-09-30T18:40:22;6.50;;;2.03;;
21266;SDS011;10791;53.108;18.326;2023-09-30T18:45:26;7.90;;;2.17;;
21266;SDS011;10791;53.108;18.326;2023-09-30T18:50:29;5.73;;;2.20;;
21266;SDS011;10791;53.108;18.326;2023-09-30T18:55:36;9.40;;;2.53;;
21266;SDS011;10791;53.108;18.326;2023-09-30T19:00:42;5.13;;;1.67;;
21266;SDS011;10791;53.108;18.326;2023-09-30T19:05:48;7.30;;;2.40;;
21266;SDS011;10791;53.108;18.326;2023-09-30T19:10:56;8.53;;;3.07;;
21266;SDS011;10791;53.108;18.326;2023-09-30T19:16:05;7.70;;;2.00;;
21266;SDS011;10791;53.108;18.326;2023-09-30T19:21:09;6.27;;;1.80;;
21266;SDS011;10791;53.108;18.326;2023-09-30T19:26:15;4.20;;;1.97;;
21266;SDS011;10791;53.108;18.326;2023-09-30T19:31:19;11.27;;;2.90;;
21266;SDS011;10791;53.108;18.326;2023-09-30T19:36:22;8.40;;;2.97;;
21266;SDS011;10791;53.108;18.326;2023-09-30T19:41:27;8.27;;;2.43;;
21266;SDS011;10791;53.108;18.326;2023-09-30T19:46:30;7.23;;;2.60;;
21266;SDS011;10791;53.108;18.326;2023-09-30T19:51:34;5.87;;;1.87;;
21266;SDS011;10791;53.108;18.326;2023-09-30T19:56:37;5.50;;;2.03;;
21266;SDS011;10791;53.108;18.326;2023-09-30T20:01:41;10.70;;;2.30;;
21266;SDS011;10791;53.108;18.326;2023-09-30T20:06:45;6.43;;;2.10;;
21266;SDS011;10791;53.108;18.326;2023-09-30T20:12:05;7.67;;;1.93;;
21266;SDS011;10791;53.108;18.326;2023-09-30T20:17:21;9.90;;;3.37;;
21266;SDS011;10791;53.108;18.326;2023-09-30T20:22:25;8.10;;;2.00;;
21266;SDS011;10791;53.108;18.326;2023-09-30T20:27:28;8.80;;;2.57;;
21266;SDS011;10791;53.108;18.326;2023-09-30T20:32:32;5.20;;;2.07;;
21266;SDS011;10791;53.108;18.326;2023-09-30T20:37:36;8.93;;;3.07;;
21266;SDS011;10791;53.108;18.326;2023-09-30T20:42:41;8.27;;;2.37;;
21266;SDS011;10791;53.108;18.326;2023-09-30T20:47:45;8.67;;;2.70;;
21266;SDS011;10791;53.108;18.326;2023-09-30T20:52:49;5.47;;;2.73;;
21266;SDS011;10791;53.108;18.326;2023-09-30T20:57:55;8.50;;;2.47;;
21266;SDS011;10791;53.108;18.326;2023-09-30T21:03:08;5.70;;;2.67;;
21266;SDS011;10791;53.108;18.326;2023-09-30T21:08:12;9.43;;;3.20;;
21266;SDS011;10791;53.108;18.326;2023-09-30T21:13:24;6.27;;;2.80;;
21266;SDS011;10791;53.108;18.326;2023-09-30T21:18:29;8.70;;;3.40;;
21266;SDS011;10791;53.108;18.326;2023-09-30T21:23:32;8.93;;;3.53;;
21266;SDS011;10791;53.108;18.326;2023-09-30T21:28:36;10.23;;;3.40;;
21266;SDS011;10791;53.108;18.326;2023-09-30T21:33:43;8.23;;;3.23;;
21266;SDS011;10791;53.108;18.326;2023-09-30T21:38:47;7.57;;;3.43;;
21266;SDS011;10791;53.108;18.326;2023-09-30T21:44:06;4.57;;;2.60;;
21266;SDS011;10791;53.108;18.326;2023-09-30T21:49:46;9.83;;;2.60;;
21266;SDS011;10791;53.108;18.326;2023-09-30T21:55:19;6.23;;;2.50;;
21266;SDS011;10791;53.108;18.326;2023-09-30T22:01:12;6.67;;;2.63;;
21266;SDS011;10791;53.108;18.326;2023-09-30T22:06:17;8.00;;;3.07;;
21266;SDS011;10791;53.108;18.326;2023-09-30T22:11:21;8.60;;;3.30;;
21266;SDS011;10791;53.108;18.326;2023-09-30T22:16:24;5.37;;;2.50;;
21266;SDS011;10791;53.108;18.326;2023-09-30T22:21:28;12.80;;;3.40;;
21266;SDS011;10791;53.108;18.326;2023-09-30T22:26:32;6.33;;;3.17;;
21266;SDS011;10791;53.108;18.326;2023-09-30T22:31:36;8.90;;;3.60;;
21266;SDS011;10791;53.108;18.326;2023-09-30T22:36:39;8.87;;;4.13;;
21266;SDS011;10791;53.108;18.326;2023-09-30T22:41:48;11.73;;;3.40;;
21266;SDS011;10791;53.108;18.326;2023-09-30T22:46:51;11.37;;;3.00;;
21266;SDS011;10791;53.108;18.326;2023-09-30T22:58:07;9.43;;;3.17;;
21266;SDS011;10791;53.108;18.326;2023-09-30T23:03:57;6.23;;;3.00;;
